Wednesday, August 15, 2018, 7:09 AM EDT
Back to Local

KCQX, Chatham Municipal Airport

Location: Chatham, MA, United States Lat: 41.683
Local Time: 7:09 AM EDT (11:09 GMT) Lon: -70
Time Zone: US/Eastern Elev: 68 ft

Show me the last for .
Show Decoded

2018-08-15 06:52 METAR KCQX 151052Z AUTO 22005KT 10SM CLR 23/22 A2986 RMK AO2 SLP111 T02330217 =
2018-08-15 05:52 METAR KCQX 150952Z AUTO 00000KT 10SM SCT018 22/21 A2984 RMK AO2 SLP104 T02170206
                 =
2018-08-15 04:52 METAR KCQX 150852Z AUTO 22004KT 10SM CLR 22/21 A2984 RMK AO2 SLP104 60004
                 T02170206 57009 =
2018-08-15 03:52 METAR KCQX 150752Z AUTO 23004KT 10SM CLR 22/21 A2984 RMK AO2 RAE0658 SLP106
                 P0000 T02220211 =
2018-08-15 03:04 METAR KCQX 150704Z AUTO 22005KT 9SM FEW019 SCT024 21/20 A2985 RMK AO2 RAE0658
                 P0000 T02110200 =
2018-08-15 02:52 METAR KCQX 150652Z AUTO 20006KT 8SM -RA FEW006 BKN019 OVC110 22/21 A2985 RMK AO2
                 RAB24 SLP110 P0004 T02220206 =
2018-08-15 01:52 METAR KCQX 150552Z AUTO 21006KT 10SM BKN022 BKN034 BKN100 22/21 A2986 RMK AO2
                 RAB35E52 SLP113 P0002 60002 T02220211 10233 20211 58004 =
2018-08-15 00:52 METAR KCQX 150452Z AUTO 20005KT 10SM CLR 23/21 A2987 RMK AO2 SLP117 T02330211
                 402940183 =
2018-08-14 23:52 METAR KCQX 150352Z AUTO 21005KT 10SM CLR 23/21 A2988 RMK AO2 SLP118 T02330211 =
2018-08-14 22:52 METAR KCQX 150252Z AUTO 22006KT 10SM CLR 23/21 A2987 RMK AO2 SLP117 T02330211
                 58000 =
2018-08-14 21:52 METAR KCQX 150152Z AUTO 22005KT 10SM FEW021 23/22 A2988 RMK AO2 SLP119 T02330222
                 =
2018-08-14 21:44 METAR KCQX 150144Z AUTO 22006KT 10SM SCT019 23/22 A2988 RMK AO2 T02330217 =
2018-08-14 21:12 METAR KCQX 150112Z AUTO 20003KT 10SM SCT019 BKN024 22/21 A2989 RMK AO2 T02170206
                 =
2018-08-14 20:52 METAR KCQX 150052Z AUTO 19003KT 9SM SCT019 21/20 A2988 RMK AO2 SLP121 T02110200
                 =
2018-08-14 19:52 METAR KCQX 142352Z AUTO VRB03KT 10SM FEW005 22/20 A2988 RMK AO2 SLP118 T02170200
                 10294 20217 50002 =
2018-08-14 19:31 METAR KCQX 142331Z AUTO VRB03KT 10SM FEW014 SCT021 22/21 A2988 RMK AO2 T02220206
                 =
2018-08-14 18:52 METAR KCQX 142252Z AUTO 20004KT 10SM FEW017 BKN026 24/21 A2988 RMK AO2 SLP118
                 T02390211 =
2018-08-14 17:52 METAR KCQX 142152Z AUTO 21007KT 10SM CLR 25/21 A2988 RMK AO2 SLP118 T02500211 =
2018-08-14 16:52 METAR KCQX 142052Z AUTO VRB03KT 10SM CLR 25/21 A2987 RMK AO2 SLP116 T02500211
                 57016 =
2018-08-14 15:52 METAR KCQX 141952Z AUTO VRB06KT 10SM CLR 25/21 A2989 RMK AO2 SLP121 T02500211 =
2018-08-14 15:39 METAR KCQX 141939Z AUTO VRB05KT 10SM SCT018 26/21 A2989 RMK AO2 T02560211 =
2018-08-14 15:13 METAR KCQX 141913Z AUTO VRB04KT 10SM BKN018 27/22 A2990 RMK AO2 T02720222 =
2018-08-14 14:52 METAR KCQX 141852Z AUTO VRB06KT 10SM CLR 29/23 A2990 RMK AO2 SLP126 T02890228 =
2018-08-14 13:52 METAR KCQX 141752Z AUTO VRB05KT 10SM CLR 28/23 A2992 RMK AO2 SLP132 T02830228
                 10294 20217 58007 =
2018-08-14 12:52 METAR KCQX 141652Z AUTO VRB06KT 10SM CLR 28/23 A2993 RMK AO2 SLP136 T02830233 =
2018-08-14 11:52 METAR KCQX 141552Z AUTO VRB05KT 10SM CLR 28/23 A2994 RMK AO2 SLP140 T02830233 =
2018-08-14 10:52 METAR KCQX 141452Z AUTO 21007KT 10SM FEW004 28/23 A2994 RMK AO2 SLP139 T02780233
                 56003 =
2018-08-14 10:37 METAR KCQX 141437Z AUTO VRB05KT 10SM SCT003 26/23 A2994 RMK AO2 T02610233 =
2018-08-14 09:52 METAR KCQX 141352Z AUTO 00000KT 10SM OVC003 26/23 A2994 RMK AO2 SLP139 T02560228
                 =
2018-08-14 09:08 METAR KCQX 141308Z AUTO 00000KT 3SM BR OVC002 24/22 A2994 RMK AO2 T02390222 =
2018-08-14 08:52 METAR KCQX 141252Z AUTO 20003KT 1 1/4SM BR OVC002 23/22 A2995 RMK AO2 SLP141
                 T02330217 =
2018-08-14 08:36 METAR KCQX 141236Z AUTO VRB05KT 1/2SM FG VV002 23/22 A2995 RMK AO2 T02280217 =
2018-08-14 08:12 METAR KCQX 141212Z AUTO 20003KT 1/4SM FG VV002 22/21 A2995 RMK AO2 T02170211 =
2018-08-14 07:52 METAR KCQX 141152Z AUTO 19003KT 1/2SM FG VV002 22/22 A2995 RMK AO2 SLP142
                 T02220217 10222 20183 50005 =
2018-08-14 07:48 METAR KCQX 141148Z AUTO 00000KT 1/2SM FG VV002 22/22 A2995 RMK AO2 =

Support USWX by starting your Amazon purchase here.